createdAt,value
2022-10-07T00:00:24.447Z,12.29
2022-10-07T00:01:24.537Z,12.26
2022-10-07T00:02:24.496Z,12.12
2022-10-07T00:03:24.408Z,12.20
2022-10-07T00:04:24.406Z,12.24
2022-10-07T00:05:24.392Z,12.21
2022-10-07T00:06:24.408Z,12.15
2022-10-07T00:07:24.377Z,12.16
2022-10-07T00:08:24.361Z,12.16
2022-10-07T00:09:24.346Z,12.24
2022-10-07T00:10:24.352Z,12.11
2022-10-07T00:11:24.351Z,12.16
2022-10-07T00:12:24.315Z,12.02
2022-10-07T00:13:24.364Z,12.09
2022-10-07T00:14:24.289Z,12.01
2022-10-07T00:15:24.281Z,11.99
2022-10-07T00:16:24.353Z,11.94
2022-10-07T00:17:24.269Z,11.94
2022-10-07T00:18:24.246Z,11.83
2022-10-07T00:19:24.235Z,11.75
2022-10-07T00:20:24.239Z,11.74
2022-10-07T00:21:24.247Z,11.72
2022-10-07T00:22:24.201Z,11.71
2022-10-07T00:23:24.192Z,11.70
2022-10-07T00:24:24.186Z,11.65
2022-10-07T00:25:24.172Z,11.72
2022-10-07T00:26:24.595Z,11.70
2022-10-07T00:27:24.151Z,11.71
2022-10-07T00:28:24.193Z,11.70
2022-10-07T00:29:24.134Z,11.64
2022-10-07T00:30:24.127Z,11.74
2022-10-07T00:31:24.181Z,11.70
2022-10-07T00:32:24.099Z,11.77
2022-10-07T00:33:24.092Z,11.78
2022-10-07T00:34:24.073Z,11.80
2022-10-07T00:35:24.053Z,11.74
2022-10-07T00:36:24.066Z,11.72
2022-10-07T00:37:24.034Z,11.74
2022-10-07T00:38:24.018Z,11.75
2022-10-07T00:39:24.013Z,11.71
2022-10-07T00:40:23.992Z,11.71
2022-10-07T00:41:24.016Z,11.75
2022-10-07T00:42:24.120Z,11.74
2022-10-07T00:43:23.957Z,11.80
2022-10-07T00:44:23.952Z,11.78
2022-10-07T00:45:23.945Z,11.78
2022-10-07T00:46:24.028Z,11.80
2022-10-07T00:47:23.931Z,11.72
2022-10-07T00:48:23.903Z,11.70
2022-10-07T00:49:23.893Z,11.75
2022-10-07T00:50:23.879Z,11.68
2022-10-07T00:51:23.879Z,11.62
2022-10-07T00:52:23.861Z,11.64
2022-10-07T00:53:23.843Z,11.53
2022-10-07T00:54:23.836Z,11.53
2022-10-07T00:55:23.830Z,11.57
2022-10-07T00:56:23.843Z,11.54
2022-10-07T00:57:23.808Z,11.43
2022-10-07T00:58:23.819Z,11.43
2022-10-07T00:59:23.803Z,11.49
2022-10-07T01:00:23.806Z,11.49
2022-10-07T01:01:23.843Z,11.39
2022-10-07T01:02:23.810Z,11.43
2022-10-07T01:03:23.757Z,11.43
2022-10-07T01:04:23.730Z,11.35
2022-10-07T01:05:23.722Z,11.47
2022-10-07T01:06:23.747Z,11.50
2022-10-07T01:07:23.712Z,11.46
2022-10-07T01:08:23.690Z,11.35
2022-10-07T01:09:23.678Z,11.38
2022-10-07T01:10:23.680Z,11.27
2022-10-07T01:11:23.700Z,11.31
2022-10-07T01:12:23.661Z,11.25
2022-10-07T01:13:23.645Z,11.36
2022-10-07T01:14:23.644Z,11.34
2022-10-07T01:15:23.614Z,11.34
2022-10-07T01:16:23.688Z,11.36
2022-10-07T01:17:23.597Z,11.43
2022-10-07T01:18:23.580Z,11.36
2022-10-07T01:19:23.572Z,11.44
2022-10-07T01:20:23.566Z,11.46
2022-10-07T01:21:23.589Z,11.53
2022-10-07T01:22:23.540Z,11.39
2022-10-07T01:23:23.531Z,11.41
2022-10-07T01:24:23.548Z,11.32
2022-10-07T01:25:23.614Z,11.47
2022-10-07T01:26:23.544Z,11.49
2022-10-07T01:27:23.481Z,11.50
2022-10-07T01:28:23.522Z,11.41
2022-10-07T01:29:23.510Z,11.43
2022-10-07T01:30:23.472Z,11.46
2022-10-07T01:31:23.535Z,11.50
2022-10-07T01:32:23.430Z,11.43
2022-10-07T01:33:23.423Z,11.47
2022-10-07T01:34:23.408Z,11.54
2022-10-07T01:35:23.510Z,11.47
2022-10-07T01:36:23.425Z,11.49
2022-10-07T01:37:23.386Z,11.54
2022-10-07T01:38:23.374Z,11.59
2022-10-07T01:39:23.354Z,11.52
2022-10-07T01:40:23.342Z,11.52
2022-10-07T01:41:23.373Z,11.57
2022-10-07T01:42:23.336Z,11.47
2022-10-07T01:43:23.340Z,11.56
2022-10-07T01:44:24.164Z,11.50
2022-10-07T01:45:23.291Z,11.39
2022-10-07T01:46:23.407Z,11.39
2022-10-07T01:47:23.289Z,11.46
2022-10-07T01:48:23.280Z,11.49
2022-10-07T01:49:23.247Z,11.43
2022-10-07T01:50:23.239Z,11.44
2022-10-07T01:51:23.253Z,11.32
2022-10-07T01:52:23.226Z,11.36
2022-10-07T01:53:23.203Z,11.27
2022-10-07T01:54:23.199Z,11.29
2022-10-07T01:55:23.212Z,11.31
2022-10-07T01:56:30.237Z,11.24
2022-10-07T01:57:23.151Z,11.20
2022-10-07T01:58:23.143Z,11.17
2022-10-07T01:59:23.131Z,11.21
2022-10-07T02:00:23.121Z,11.13
2022-10-07T02:01:23.200Z,11.14
2022-10-07T02:02:23.133Z,11.13
2022-10-07T02:03:23.199Z,11.11
2022-10-07T02:04:23.111Z,11.16
2022-10-07T02:05:23.081Z,11.13
2022-10-07T02:06:23.133Z,11.14
2022-10-07T02:07:23.058Z,11.14
2022-10-07T02:08:23.036Z,11.06
2022-10-07T02:09:23.025Z,11.01
2022-10-07T02:10:23.025Z,11.02
2022-10-07T02:11:23.016Z,10.99
2022-10-07T02:12:22.992Z,11.02
2022-10-07T02:13:22.986Z,10.95
2022-10-07T02:14:22.978Z,10.95
2022-10-07T02:15:22.966Z,10.91
2022-10-07T02:16:23.078Z,10.92
2022-10-07T02:17:22.991Z,10.95
2022-10-07T02:18:22.956Z,10.92
2022-10-07T02:19:22.933Z,10.86
2022-10-07T02:20:22.911Z,10.89
2022-10-07T02:21:22.920Z,10.88
2022-10-07T02:22:22.901Z,10.86
2022-10-07T02:23:22.892Z,10.94
2022-10-07T02:24:22.915Z,10.83
2022-10-07T02:25:22.860Z,10.91
2022-10-07T02:26:22.859Z,10.96
2022-10-07T02:27:22.836Z,10.95
2022-10-07T02:28:22.860Z,10.91
2022-10-07T02:29:22.809Z,10.92
2022-10-07T02:30:22.849Z,10.99
2022-10-07T02:31:22.882Z,10.91
2022-10-07T02:32:22.774Z,10.91
2022-10-07T02:33:22.764Z,10.91
2022-10-07T02:34:22.770Z,10.89
2022-10-07T02:35:22.742Z,10.95
2022-10-07T02:36:22.744Z,11.02
2022-10-07T02:37:22.723Z,10.94
2022-10-07T02:38:22.711Z,10.94
2022-10-07T02:39:22.699Z,11.01
2022-10-07T02:40:22.692Z,10.89
2022-10-07T02:41:22.686Z,10.94
2022-10-07T02:42:22.665Z,10.94
2022-10-07T02:43:22.683Z,10.89
2022-10-07T02:44:22.643Z,10.91
2022-10-07T02:45:26.680Z,10.94
2022-10-07T02:46:22.736Z,10.92
2022-10-07T02:47:22.612Z,10.91
2022-10-07T02:48:22.599Z,10.89
2022-10-07T02:49:22.590Z,10.91
2022-10-07T02:50:22.597Z,10.92
2022-10-07T02:51:22.581Z,10.92
2022-10-07T02:52:22.579Z,10.91
2022-10-07T02:53:22.550Z,10.95
2022-10-07T02:54:22.537Z,10.83
2022-10-07T02:55:22.537Z,10.80
2022-10-07T02:56:22.531Z,10.86
2022-10-07T02:57:22.504Z,10.95
2022-10-07T02:58:22.494Z,10.81
2022-10-07T02:59:22.485Z,10.84
2022-10-07T03:00:22.471Z,10.84
2022-10-07T03:01:22.543Z,10.84
2022-10-07T03:02:22.448Z,10.86
2022-10-07T03:03:22.497Z,10.84
2022-10-07T03:04:22.504Z,10.83
2022-10-07T03:05:22.420Z,10.84
2022-10-07T03:06:22.433Z,10.76
2022-10-07T03:07:22.396Z,10.80
2022-10-07T03:08:22.385Z,10.81
2022-10-07T03:09:22.373Z,10.77
2022-10-07T03:10:22.362Z,10.81
2022-10-07T03:11:22.363Z,10.73
2022-10-07T03:12:22.342Z,10.71
2022-10-07T03:13:22.330Z,10.66
2022-10-07T03:14:22.331Z,10.60
2022-10-07T03:15:22.311Z,10.55
2022-10-07T03:16:22.448Z,10.46
2022-10-07T03:17:22.288Z,10.53
2022-10-07T03:18:22.274Z,10.60
2022-10-07T03:19:22.264Z,10.58
2022-10-07T03:20:22.254Z,10.59
2022-10-07T03:21:22.257Z,10.63
2022-10-07T03:22:22.249Z,10.47
2022-10-07T03:23:22.222Z,10.58
2022-10-07T03:24:22.210Z,10.60
2022-10-07T03:25:22.200Z,10.56
2022-10-07T03:26:22.199Z,10.59
2022-10-07T03:27:22.183Z,10.53
2022-10-07T03:28:22.215Z,10.55
2022-10-07T03:29:22.157Z,10.59
2022-10-07T03:30:24.521Z,10.47
2022-10-07T03:31:22.244Z,10.62
2022-10-07T03:32:22.122Z,10.63
2022-10-07T03:33:22.114Z,10.65
2022-10-07T03:34:22.099Z,10.62
2022-10-07T03:35:22.088Z,10.65
2022-10-07T03:36:22.088Z,10.60
2022-10-07T03:37:22.068Z,10.58
2022-10-07T03:38:22.081Z,10.52
2022-10-07T03:39:22.050Z,10.51
2022-10-07T03:40:22.045Z,10.52
2022-10-07T03:41:22.056Z,10.52
2022-10-07T03:42:22.021Z,10.46
2022-10-07T03:43:22.011Z,10.46
2022-10-07T03:44:21.988Z,10.55
2022-10-07T03:45:21.984Z,10.51
2022-10-07T03:46:22.011Z,10.43
2022-10-07T03:47:21.957Z,10.39
2022-10-07T03:48:21.944Z,10.37
2022-10-07T03:49:21.954Z,10.51
2022-10-07T03:50:21.932Z,10.42
2022-10-07T03:51:21.915Z,10.39
2022-10-07T03:52:21.901Z,10.36
2022-10-07T03:53:21.892Z,10.39
2022-10-07T03:54:21.895Z,10.42
2022-10-07T03:55:21.880Z,10.40
2022-10-07T03:56:21.857Z,10.43
2022-10-07T03:57:21.847Z,10.39
2022-10-07T03:58:21.834Z,10.39
2022-10-07T03:59:21.826Z,10.40
2022-10-07T04:00:21.836Z,10.42
2022-10-07T04:01:21.845Z,10.39
2022-10-07T04:02:21.810Z,10.39
2022-10-07T04:03:21.834Z,10.40
2022-10-07T04:04:21.770Z,10.39
2022-10-07T04:05:21.761Z,10.37
2022-10-07T04:06:21.770Z,10.40
2022-10-07T04:07:21.741Z,10.30
2022-10-07T04:08:21.726Z,10.34
2022-10-07T04:09:21.718Z,10.32
2022-10-07T04:10:21.721Z,10.26
2022-10-07T04:11:21.704Z,10.30
2022-10-07T04:12:21.685Z,10.26
2022-10-07T04:13:21.672Z,10.30
2022-10-07T04:14:21.659Z,10.24
2022-10-07T04:15:21.651Z,10.28
2022-10-07T04:16:21.680Z,10.25
2022-10-07T04:17:21.629Z,10.28
2022-10-07T04:18:21.655Z,10.30
2022-10-07T04:19:21.606Z,10.26
2022-10-07T04:20:21.617Z,10.22
2022-10-07T04:21:21.595Z,10.24
2022-10-07T04:22:21.578Z,10.24
2022-10-07T04:23:21.564Z,10.24
2022-10-07T04:24:21.552Z,10.21
2022-10-07T04:25:21.549Z,10.17
2022-10-07T04:26:21.557Z,10.26
2022-10-07T04:27:46.756Z,10.19
2022-10-07T04:28:22.552Z,10.18
2022-10-07T04:29:21.540Z,10.18
2022-10-07T04:30:21.484Z,10.21
2022-10-07T04:31:21.596Z,10.24
2022-10-07T04:32:21.466Z,10.28
2022-10-07T04:33:21.454Z,10.22
2022-10-07T04:34:21.444Z,10.17
2022-10-07T04:35:21.431Z,10.26
2022-10-07T04:36:21.427Z,10.24
2022-10-07T04:37:21.422Z,10.25
2022-10-07T04:38:25.204Z,10.17
2022-10-07T04:39:29.941Z,10.17
2022-10-07T04:40:22.373Z,10.19
2022-10-07T04:41:21.377Z,10.14
2022-10-07T04:42:21.386Z,10.19
2022-10-07T04:43:21.345Z,10.17
2022-10-07T04:44:21.331Z,10.21
2022-10-07T04:45:21.323Z,10.19
2022-10-07T04:46:21.347Z,10.18
2022-10-07T04:47:21.303Z,10.22
2022-10-07T04:48:21.291Z,10.21
2022-10-07T04:49:21.281Z,10.18
2022-10-07T04:50:21.266Z,10.17
2022-10-07T04:51:21.271Z,10.15
2022-10-07T04:52:21.255Z,10.24
2022-10-07T04:53:21.238Z,10.25
2022-10-07T04:54:21.228Z,10.17
2022-10-07T04:55:21.220Z,10.18
2022-10-07T04:56:21.211Z,10.15
2022-10-07T04:57:21.193Z,10.14
2022-10-07T04:58:21.197Z,10.04
2022-10-07T04:59:23.629Z,10.09
2022-10-07T05:00:21.159Z,10.07
2022-10-07T05:01:21.201Z,10.07
2022-10-07T05:02:21.192Z,10.07
2022-10-07T05:03:21.152Z,10.07
2022-10-07T05:04:21.114Z,10.09
2022-10-07T05:05:21.138Z,10.04
2022-10-07T05:06:21.105Z,10.07
2022-10-07T05:07:21.101Z,10.03
2022-10-07T05:08:21.072Z,9.93
2022-10-07T05:09:21.065Z,9.96
2022-10-07T05:10:21.072Z,9.94
2022-10-07T05:11:21.041Z,9.96
2022-10-07T05:12:21.029Z,9.99
2022-10-07T05:13:21.019Z,9.99
2022-10-07T05:14:21.024Z,10.01
2022-10-07T05:15:21.001Z,9.96
2022-10-07T05:16:21.062Z,9.93
2022-10-07T05:17:20.976Z,9.93
2022-10-07T05:18:20.965Z,9.97
2022-10-07T05:19:20.955Z,9.94
2022-10-07T05:20:20.955Z,10.00
2022-10-07T05:21:20.936Z,9.94
2022-10-07T05:22:20.921Z,9.89
2022-10-07T05:23:24.431Z,9.85
2022-10-07T05:24:21.897Z,9.89
2022-10-07T05:25:20.899Z,9.86
2022-10-07T05:26:20.881Z,9.89
2022-10-07T05:27:20.868Z,9.86
2022-10-07T05:28:20.907Z,9.91
2022-10-07T05:29:20.845Z,9.89
2022-10-07T05:30:20.879Z,9.91
2022-10-07T05:31:20.864Z,9.94
2022-10-07T05:32:20.814Z,10.01
2022-10-07T05:33:20.808Z,9.94
2022-10-07T05:34:20.792Z,9.91
2022-10-07T05:35:20.796Z,9.91
2022-10-07T05:36:20.770Z,9.89
2022-10-07T05:37:20.761Z,10.04
2022-10-07T05:38:20.750Z,10.06
2022-10-07T05:39:20.751Z,10.12
2022-10-07T05:40:20.725Z,10.15
2022-10-07T05:41:20.716Z,10.19
2022-10-07T05:42:20.704Z,10.18
2022-10-07T05:43:20.697Z,10.22
2022-10-07T05:44:20.692Z,10.28
2022-10-07T05:45:20.675Z,10.34
2022-10-07T05:46:20.779Z,10.30
2022-10-07T05:47:20.654Z,10.33
2022-10-07T05:48:20.644Z,10.34
2022-10-07T05:49:20.644Z,10.40
2022-10-07T05:50:20.618Z,10.43
2022-10-07T05:51:20.607Z,10.51
2022-10-07T05:52:20.611Z,10.53
2022-10-07T05:53:20.587Z,10.47
2022-10-07T05:54:20.582Z,10.55
2022-10-07T05:55:20.565Z,10.56
2022-10-07T05:56:20.551Z,10.65
2022-10-07T05:57:20.543Z,10.66
2022-10-07T05:58:20.529Z,10.74
2022-10-07T05:59:20.535Z,10.76
2022-10-07T06:00:20.507Z,10.81
2022-10-07T06:01:20.505Z,10.81
2022-10-07T06:02:20.639Z,10.81
2022-10-07T06:03:20.558Z,10.94
2022-10-07T06:04:20.480Z,10.81
2022-10-07T06:05:20.456Z,10.94
2022-10-07T06:06:20.443Z,10.92
2022-10-07T06:07:22.695Z,11.16
2022-10-07T06:08:20.422Z,11.24
2022-10-07T06:09:20.422Z,11.20
2022-10-07T06:10:20.401Z,11.34
2022-10-07T06:11:20.390Z,11.49
2022-10-07T06:12:20.379Z,11.65
2022-10-07T06:13:20.372Z,11.75
2022-10-07T06:14:20.356Z,11.82
2022-10-07T06:15:20.360Z,12.08
2022-10-07T06:16:20.409Z,12.26
2022-10-07T06:17:20.325Z,12.38
2022-10-07T06:18:20.450Z,12.62
2022-10-07T06:19:20.305Z,12.81
2022-10-07T06:20:20.302Z,13.15
2022-10-07T06:21:20.282Z,13.52
2022-10-07T06:22:20.273Z,13.59
2022-10-07T06:23:20.259Z,13.94
2022-10-07T06:24:20.250Z,14.25
2022-10-07T06:25:20.253Z,14.52
2022-10-07T06:26:20.234Z,14.83
2022-10-07T06:27:20.215Z,15.08
2022-10-07T06:28:20.283Z,15.49
2022-10-07T06:29:20.244Z,15.66
2022-10-07T06:30:20.188Z,15.89
2022-10-07T06:31:21.278Z,16.11
2022-10-07T06:32:20.191Z,16.41
2022-10-07T06:33:20.151Z,16.58
2022-10-07T06:34:20.168Z,16.88
2022-10-07T06:35:20.128Z,17.00
2022-10-07T06:36:20.150Z,17.29
2022-10-07T06:37:20.110Z,17.59
2022-10-07T06:38:20.098Z,17.84
2022-10-07T06:39:20.098Z,18.07
2022-10-07T06:40:20.078Z,18.24
2022-10-07T06:41:20.066Z,18.33
2022-10-07T06:42:20.055Z,18.61
2022-10-07T06:43:20.044Z,18.79
2022-10-07T06:44:20.048Z,18.97
2022-10-07T06:45:20.022Z,18.99
2022-10-07T06:46:20.110Z,19.08
2022-10-07T06:47:20.004Z,19.31
2022-10-07T06:48:19.992Z,19.57
2022-10-07T06:49:19.991Z,19.68
2022-10-07T06:50:20.025Z,19.84
2022-10-07T06:51:19.982Z,19.63
2022-10-07T06:52:19.950Z,19.73
2022-10-07T06:53:19.933Z,19.79
2022-10-07T06:54:19.936Z,19.97
2022-10-07T06:55:19.914Z,20.09
2022-10-07T06:56:19.910Z,20.20
2022-10-07T06:57:44.410Z,20.34
2022-10-07T06:58:20.879Z,20.47
2022-10-07T06:59:19.878Z,20.42
2022-10-07T07:00:19.859Z,20.86
2022-10-07T07:01:19.932Z,20.93
2022-10-07T07:02:19.955Z,21.16
2022-10-07T07:03:19.826Z,21.35
2022-10-07T07:04:19.828Z,21.45
2022-10-07T07:05:19.811Z,21.69
2022-10-07T07:06:19.811Z,21.69
2022-10-07T07:07:19.783Z,21.78
2022-10-07T07:08:19.779Z,21.75
2022-10-07T07:09:19.801Z,21.92
2022-10-07T07:10:19.757Z,21.61
2022-10-07T07:11:19.741Z,21.72
2022-10-07T07:12:19.737Z,21.64
2022-10-07T07:13:19.722Z,21.76
2022-10-07T07:14:19.724Z,22.01
2022-10-07T07:15:19.697Z,22.14
2022-10-07T07:16:19.735Z,22.28
2022-10-07T07:17:19.682Z,22.12
2022-10-07T07:18:19.670Z,22.20
2022-10-07T07:19:19.669Z,22.34
2022-10-07T07:20:19.674Z,22.28
2022-10-07T07:21:19.636Z,22.35
2022-10-07T07:22:19.646Z,22.41
2022-10-07T07:23:19.613Z,22.52
2022-10-07T07:24:19.660Z,22.71
2022-10-07T07:25:19.601Z,22.62
2022-10-07T07:26:19.585Z,22.68
2022-10-07T07:27:19.576Z,22.82
2022-10-07T07:28:19.630Z,22.96
2022-10-07T07:29:19.563Z,22.97
2022-10-07T07:30:19.545Z,23.19
2022-10-07T07:31:19.586Z,23.47
2022-10-07T07:32:19.526Z,23.71
2022-10-07T07:33:19.511Z,23.62
2022-10-07T07:34:19.517Z,23.90
2022-10-07T07:35:19.489Z,24.05
2022-10-07T07:36:19.481Z,23.98
2022-10-07T07:37:19.468Z,24.24
2022-10-07T07:38:23.341Z,24.24
2022-10-07T07:39:20.461Z,24.44
2022-10-07T07:40:19.440Z,24.61
2022-10-07T07:41:19.427Z,24.38
2022-10-07T07:42:19.419Z,24.41
2022-10-07T07:43:19.407Z,24.42
2022-10-07T07:44:19.417Z,24.59
2022-10-07T07:45:19.388Z,24.75
2022-10-07T07:46:19.434Z,24.54
2022-10-07T07:47:19.366Z,24.56
2022-10-07T07:48:19.357Z,24.54
2022-10-07T07:49:19.355Z,24.35
2022-10-07T07:50:19.338Z,24.49
2022-10-07T07:51:19.324Z,24.52
2022-10-07T07:52:19.318Z,24.53
2022-10-07T07:53:19.303Z,24.42
2022-10-07T07:54:19.323Z,24.50
2022-10-07T07:55:19.285Z,24.56
2022-10-07T07:56:19.299Z,24.54
2022-10-07T07:57:26.860Z,24.88
2022-10-07T07:58:19.260Z,25.17
2022-10-07T07:59:19.266Z,25.69
2022-10-07T08:00:19.248Z,25.59
2022-10-07T08:01:19.293Z,25.75
2022-10-07T08:02:19.300Z,25.65
2022-10-07T08:03:19.208Z,25.69
2022-10-07T08:04:19.204Z,25.89
2022-10-07T08:05:23.638Z,25.93
2022-10-07T08:06:20.171Z,26.02
2022-10-07T08:07:19.163Z,26.04
2022-10-07T08:08:19.154Z,26.02
2022-10-07T08:09:19.156Z,26.08
2022-10-07T08:10:19.164Z,26.09
2022-10-07T08:11:19.122Z,26.11
2022-10-07T08:12:19.116Z,26.09
2022-10-07T08:13:19.101Z,26.02
2022-10-07T08:14:19.164Z,26.02
2022-10-07T08:15:19.084Z,26.04
2022-10-07T08:16:19.075Z,26.02
2022-10-07T08:17:19.064Z,25.75
2022-10-07T08:18:19.055Z,25.67
2022-10-07T08:19:19.050Z,25.37
2022-10-07T08:20:19.041Z,24.95
2022-10-07T08:21:19.046Z,24.87
2022-10-07T08:22:19.014Z,24.80
2022-10-07T08:23:19.029Z,24.60
2022-10-07T08:24:19.002Z,24.41
2022-10-07T08:25:18.994Z,23.94
2022-10-07T08:26:18.995Z,23.80
2022-10-07T08:27:18.966Z,23.58
2022-10-07T08:28:18.991Z,23.39
2022-10-07T08:29:18.965Z,23.19
2022-10-07T08:30:18.933Z,23.15
2022-10-07T08:31:18.974Z,23.08
2022-10-07T08:32:18.915Z,22.89
2022-10-07T08:33:18.907Z,22.84
2022-10-07T08:34:18.907Z,22.74
2022-10-07T08:35:18.882Z,22.75
2022-10-07T08:36:18.907Z,22.86
2022-10-07T08:37:18.870Z,22.86
2022-10-07T08:38:18.852Z,22.90
2022-10-07T08:39:18.856Z,23.04
2022-10-07T08:40:18.832Z,23.09
2022-10-07T08:41:18.819Z,23.24
2022-10-07T08:42:18.826Z,23.40
2022-10-07T08:43:18.799Z,23.42
2022-10-07T08:44:18.800Z,23.47
2022-10-07T08:45:18.778Z,23.34
2022-10-07T08:46:18.815Z,23.17
2022-10-07T08:47:18.757Z,23.02
2022-10-07T08:48:18.749Z,22.92
2022-10-07T08:49:18.752Z,22.78
2022-10-07T08:50:20.076Z,22.46
2022-10-07T08:51:18.724Z,22.38
2022-10-07T08:52:18.705Z,22.23
2022-10-07T08:53:18.705Z,21.98
2022-10-07T08:54:18.702Z,21.94
2022-10-07T08:55:18.781Z,21.88
2022-10-07T08:56:18.667Z,21.92
2022-10-07T08:57:18.653Z,21.91
2022-10-07T08:58:18.660Z,22.02
2022-10-07T08:59:18.641Z,22.17
2022-10-07T09:00:18.624Z,22.37
2022-10-07T09:01:18.689Z,22.75
2022-10-07T09:02:18.620Z,23.01
2022-10-07T09:03:24.125Z,23.43
2022-10-07T09:04:19.589Z,23.67
2022-10-07T09:05:18.570Z,23.79
2022-10-07T09:06:18.558Z,24.04
2022-10-07T09:07:18.555Z,24.41
2022-10-07T09:08:18.538Z,24.53
2022-10-07T09:09:18.547Z,24.73
2022-10-07T09:10:18.522Z,24.82
2022-10-07T09:11:18.509Z,25.06
2022-10-07T09:12:18.496Z,25.25
2022-10-07T09:13:18.488Z,25.31
2022-10-07T09:14:18.519Z,25.34
2022-10-07T09:15:18.469Z,25.44
2022-10-07T09:16:18.539Z,25.42
2022-10-07T09:17:18.446Z,25.42
2022-10-07T09:18:18.434Z,25.38
2022-10-07T09:19:18.434Z,25.57
2022-10-07T09:20:18.434Z,25.72
2022-10-07T09:21:18.469Z,26.05
2022-10-07T09:22:18.395Z,26.08
2022-10-07T09:23:18.401Z,26.24
2022-10-07T09:24:18.376Z,26.27
2022-10-07T09:25:18.375Z,26.43
2022-10-07T09:26:18.358Z,26.59
2022-10-07T09:27:18.350Z,26.94
2022-10-07T09:28:18.420Z,26.91
2022-10-07T09:29:18.325Z,27.21
2022-10-07T09:30:18.346Z,27.29
2022-10-07T09:31:18.329Z,27.46
2022-10-07T09:32:18.335Z,27.64
2022-10-07T09:33:18.344Z,27.59
2022-10-07T09:34:18.277Z,27.62
2022-10-07T09:35:18.279Z,27.99
2022-10-07T09:36:18.267Z,28.04
2022-10-07T09:37:18.244Z,28.14
2022-10-07T09:38:18.237Z,28.50
2022-10-07T09:39:18.226Z,28.48
2022-10-07T09:40:18.226Z,28.51
2022-10-07T09:41:18.207Z,28.58
2022-10-07T09:42:18.199Z,28.68
2022-10-07T09:43:18.189Z,28.53
2022-10-07T09:44:18.181Z,28.33
2022-10-07T09:45:18.177Z,28.35
2022-10-07T09:46:18.282Z,28.59
2022-10-07T09:47:18.148Z,28.59
2022-10-07T09:48:18.143Z,28.58
2022-10-07T09:49:21.052Z,28.48
2022-10-07T09:50:19.235Z,28.38
2022-10-07T09:51:18.120Z,28.25
2022-10-07T09:52:18.104Z,27.98
2022-10-07T09:53:18.095Z,27.95
2022-10-07T09:54:18.099Z,27.91
2022-10-07T09:55:18.083Z,27.61
2022-10-07T09:56:18.065Z,27.41
2022-10-07T09:57:18.968Z,27.16
2022-10-07T09:58:18.047Z,27.05
2022-10-07T09:59:18.038Z,27.28
2022-10-07T10:00:18.043Z,27.42
2022-10-07T10:01:18.019Z,27.73
2022-10-07T10:02:18.112Z,27.71
2022-10-07T10:03:18.087Z,27.88
2022-10-07T10:04:17.994Z,28.19
2022-10-07T10:05:17.995Z,28.40
2022-10-07T10:06:17.975Z,28.21
2022-10-07T10:07:17.975Z,28.72
2022-10-07T10:08:17.954Z,28.73
2022-10-07T10:09:20.233Z,28.28
2022-10-07T10:10:17.948Z,28.23
2022-10-07T10:11:17.928Z,28.51
2022-10-07T10:12:17.920Z,28.80
2022-10-07T10:13:17.907Z,28.51
2022-10-07T10:14:17.899Z,28.40
2022-10-07T10:15:17.901Z,28.22
2022-10-07T10:16:17.929Z,28.13
2022-10-07T10:17:17.871Z,28.07
2022-10-07T10:18:17.890Z,28.26
2022-10-07T10:19:17.862Z,28.22
2022-10-07T10:20:17.855Z,28.31
2022-10-07T10:21:17.836Z,27.73
2022-10-07T10:22:17.830Z,26.99
2022-10-07T10:23:17.822Z,26.54
2022-10-07T10:24:17.811Z,26.11
2022-10-07T10:25:17.815Z,25.52
2022-10-07T10:26:17.791Z,25.15
2022-10-07T10:27:17.779Z,24.75
2022-10-07T10:28:17.824Z,24.23
2022-10-07T10:29:17.759Z,23.64
2022-10-07T10:30:17.765Z,23.15
2022-10-07T10:31:17.780Z,22.75
2022-10-07T10:32:17.733Z,22.64
2022-10-07T10:33:17.742Z,22.17
2022-10-07T10:34:17.849Z,22.10
2022-10-07T10:35:17.718Z,22.09
2022-10-07T10:36:17.748Z,21.83
2022-10-07T10:37:17.693Z,21.69
2022-10-07T10:38:17.704Z,21.54
2022-10-07T10:39:17.708Z,21.19
2022-10-07T10:40:19.116Z,20.93
2022-10-07T10:41:17.641Z,20.80
2022-10-07T10:42:17.631Z,20.96
2022-10-07T10:43:17.630Z,20.79
2022-10-07T10:44:17.611Z,20.59
2022-10-07T10:45:17.609Z,20.42
2022-10-07T10:46:17.625Z,20.43
2022-10-07T10:47:17.579Z,20.31
2022-10-07T10:48:17.565Z,20.27
2022-10-07T10:49:17.558Z,20.27
2022-10-07T10:50:17.643Z,20.33
2022-10-07T10:51:17.535Z,20.18
2022-10-07T10:52:17.548Z,20.16
2022-10-07T10:53:17.514Z,20.16
2022-10-07T10:54:17.502Z,20.12
2022-10-07T10:55:17.508Z,20.12
2022-10-07T10:56:17.480Z,19.94
2022-10-07T10:57:17.470Z,19.86
2022-10-07T10:58:17.461Z,19.83
2022-10-07T10:59:17.451Z,19.68
2022-10-07T11:00:17.547Z,19.60
2022-10-07T11:01:17.427Z,19.58
2022-10-07T11:02:17.496Z,19.54
2022-10-07T11:03:17.518Z,19.51
2022-10-07T11:04:17.403Z,19.42
2022-10-07T11:05:17.418Z,19.46
2022-10-07T11:06:17.387Z,19.48
2022-10-07T11:07:17.422Z,19.51
2022-10-07T11:08:17.445Z,19.48
2022-10-07T11:09:17.396Z,19.51
2022-10-07T11:10:17.423Z,19.48
2022-10-07T11:11:17.319Z,19.48
2022-10-07T11:12:17.309Z,19.40
2022-10-07T11:13:17.305Z,19.32
2022-10-07T11:14:17.310Z,19.40
2022-10-07T11:15:17.275Z,19.38
2022-10-07T11:16:17.324Z,19.39
2022-10-07T11:17:17.258Z,19.31
2022-10-07T11:18:17.243Z,19.29
2022-10-07T11:19:17.242Z,19.32
2022-10-07T11:20:17.303Z,19.36
2022-10-07T11:21:17.211Z,19.31
2022-10-07T11:22:17.216Z,19.18
2022-10-07T11:23:17.189Z,19.23
2022-10-07T11:24:17.187Z,19.28
2022-10-07T11:25:17.269Z,19.25
2022-10-07T11:26:17.158Z,19.40
2022-10-07T11:27:17.153Z,19.31
2022-10-07T11:28:17.192Z,19.40
2022-10-07T11:29:17.136Z,19.42
2022-10-07T11:30:17.186Z,19.40
2022-10-07T11:31:17.206Z,19.36
2022-10-07T11:32:17.094Z,19.33
2022-10-07T11:33:17.088Z,19.33
2022-10-07T11:34:17.087Z,19.24
2022-10-07T11:35:17.065Z,19.21
2022-10-07T11:36:17.092Z,19.21
2022-10-07T11:37:17.049Z,19.10
2022-10-07T11:38:17.046Z,19.14
2022-10-07T11:39:17.035Z,19.14
2022-10-07T11:40:17.108Z,19.18
2022-10-07T11:41:17.002Z,19.14
2022-10-07T11:42:17.003Z,19.18
2022-10-07T11:43:16.979Z,19.11
2022-10-07T11:44:16.984Z,19.02
2022-10-07T11:45:16.982Z,19.11
2022-10-07T11:46:17.026Z,19.20
2022-10-07T11:47:16.937Z,19.15
2022-10-07T11:48:16.926Z,19.15
2022-10-07T11:49:16.931Z,19.21
2022-10-07T11:50:16.958Z,19.18
2022-10-07T11:51:16.905Z,19.20
2022-10-07T11:52:16.888Z,19.25
2022-10-07T11:53:16.879Z,19.20
2022-10-07T11:54:16.927Z,19.24
2022-10-07T11:55:16.869Z,19.20
2022-10-07T11:56:16.864Z,19.18
2022-10-07T11:57:16.876Z,19.18
2022-10-07T11:58:16.829Z,19.21
2022-10-07T11:59:16.834Z,19.20
2022-10-07T12:00:16.801Z,19.13
2022-10-07T12:01:16.789Z,19.17
2022-10-07T12:02:16.824Z,19.08
2022-10-07T12:03:16.826Z,19.08
2022-10-07T12:04:16.779Z,19.06
2022-10-07T12:05:16.759Z,19.06
2022-10-07T12:06:16.735Z,18.92
2022-10-07T12:07:16.721Z,18.94
2022-10-07T12:08:16.708Z,19.01
2022-10-07T12:09:16.712Z,19.06
2022-10-07T12:10:16.714Z,19.08
2022-10-07T12:11:16.688Z,19.13
2022-10-07T12:12:16.669Z,19.08
2022-10-07T12:13:16.659Z,19.08
2022-10-07T12:14:16.658Z,19.13
2022-10-07T12:15:16.635Z,19.06
2022-10-07T12:16:16.704Z,19.02
2022-10-07T12:17:16.614Z,18.94
2022-10-07T12:18:16.602Z,19.08
2022-10-07T12:19:17.945Z,19.13
2022-10-07T12:20:16.583Z,19.08
2022-10-07T12:21:16.570Z,19.08
2022-10-07T12:22:16.562Z,19.06
2022-10-07T12:23:16.555Z,19.05
2022-10-07T12:24:16.555Z,19.02
2022-10-07T12:25:16.533Z,18.91
2022-10-07T12:26:16.541Z,18.94
2022-10-07T12:27:16.510Z,18.97
2022-10-07T12:28:16.564Z,18.94
2022-10-07T12:29:16.503Z,18.95
2022-10-07T12:30:16.474Z,18.91
2022-10-07T12:31:16.567Z,18.97
2022-10-07T12:32:16.453Z,18.94
2022-10-07T12:33:16.441Z,18.95
2022-10-07T12:34:16.443Z,19.10
2022-10-07T12:35:16.421Z,19.08
2022-10-07T12:36:16.413Z,19.02
2022-10-07T12:37:16.400Z,18.92
2022-10-07T12:38:16.414Z,19.02
2022-10-07T12:39:16.391Z,18.97
2022-10-07T12:40:16.366Z,18.91
2022-10-07T12:41:16.361Z,18.91
2022-10-07T12:42:16.363Z,18.97
2022-10-07T12:43:16.336Z,18.77
2022-10-07T12:44:16.331Z,18.94
2022-10-07T12:45:16.314Z,18.82
2022-10-07T12:46:16.435Z,18.92
2022-10-07T12:47:18.425Z,18.94
2022-10-07T12:48:16.278Z,18.91
2022-10-07T12:49:16.280Z,18.92
2022-10-07T12:50:16.256Z,18.84
2022-10-07T12:51:16.248Z,18.94
2022-10-07T12:52:16.235Z,18.90
2022-10-07T12:53:16.230Z,18.92